createdAt,value
2017-10-09T00:01:20.665Z,4.70
2017-10-09T00:03:48.911Z,3.77
2017-10-09T00:06:17.154Z,3.33
2017-10-09T00:08:45.420Z,3.47
2017-10-09T00:11:13.667Z,3.80
2017-10-09T00:13:41.907Z,8.50
2017-10-09T00:16:10.530Z,3.47
2017-10-09T00:18:39.534Z,5.30
2017-10-09T00:21:07.867Z,6.53
2017-10-09T00:23:36.293Z,6.67
2017-10-09T00:26:04.533Z,4.47
2017-10-09T00:28:32.776Z,4.00
2017-10-09T00:31:01.041Z,3.63
2017-10-09T00:33:29.279Z,4.80
2017-10-09T00:35:58.304Z,5.00
2017-10-09T00:38:26.903Z,3.87
2017-10-09T00:40:55.142Z,3.73
2017-10-09T00:43:24.150Z,4.80
2017-10-09T00:45:52.421Z,6.27
2017-10-09T00:48:20.681Z,6.07
2017-10-09T00:50:49.694Z,4.20
2017-10-09T00:53:17.960Z,13.43
2017-10-09T00:55:47.931Z,6.57
2017-10-09T00:58:16.169Z,4.70
2017-10-09T01:00:44.787Z,4.93
2017-10-09T01:03:13.031Z,6.03
2017-10-09T01:05:41.278Z,10.77
2017-10-09T01:08:09.546Z,6.20
2017-10-09T01:10:37.793Z,5.20
2017-10-09T01:13:06.027Z,5.50
2017-10-09T01:15:34.291Z,5.73
2017-10-09T01:18:02.535Z,13.07
2017-10-09T01:20:30.784Z,8.37
2017-10-09T01:22:59.264Z,6.33
2017-10-09T01:25:27.742Z,5.70
2017-10-09T01:27:55.986Z,5.90
2017-10-09T01:30:24.483Z,9.43
2017-10-09T01:32:52.729Z,5.20
2017-10-09T01:35:21.738Z,5.23
2017-10-09T01:37:50.778Z,5.53
2017-10-09T01:40:19.023Z,5.93
2017-10-09T01:42:47.258Z,5.50
2017-10-09T01:45:15.902Z,5.87
2017-10-09T01:47:44.142Z,7.00
2017-10-09T01:50:13.162Z,12.00
2017-10-09T01:52:41.486Z,7.80
2017-10-09T01:55:09.744Z,5.20
2017-10-09T01:57:37.982Z,5.33
2017-10-09T02:00:06.246Z,6.53
2017-10-09T02:02:34.491Z,6.30
2017-10-09T02:05:02.730Z,6.93
2017-10-09T02:07:31.057Z,6.33
2017-10-09T02:09:59.298Z,5.80
2017-10-09T02:12:27.542Z,8.13
2017-10-09T02:14:55.802Z,14.93
2017-10-09T02:17:24.822Z,7.20
2017-10-09T02:19:53.063Z,7.10
2017-10-09T02:22:21.327Z,7.87
2017-10-09T02:24:49.570Z,11.80
2017-10-09T02:27:17.987Z,16.83
2017-10-09T02:29:46.375Z,7.47
2017-10-09T02:32:15.386Z,9.80
2017-10-09T02:34:43.630Z,7.63
2017-10-09T02:37:11.895Z,8.33
2017-10-09T02:39:40.138Z,8.20
2017-10-09T02:42:08.382Z,9.93
2017-10-09T02:44:36.660Z,6.80
2017-10-09T02:47:05.674Z,10.20
2017-10-09T02:49:33.926Z,11.30
2017-10-09T02:52:03.152Z,8.83
2017-10-09T02:54:31.395Z,7.50
2017-10-09T02:57:00.402Z,8.30
2017-10-09T02:59:29.433Z,8.23
2017-10-09T03:01:57.677Z,10.40
2017-10-09T03:04:25.934Z,6.13
2017-10-09T03:06:55.143Z,6.73
2017-10-09T03:09:24.159Z,5.97
2017-10-09T03:11:52.494Z,12.83
2017-10-09T03:14:20.819Z,8.70
2017-10-09T03:16:49.058Z,6.53
2017-10-09T03:19:18.062Z,9.83
2017-10-09T03:21:46.338Z,7.23
2017-10-09T03:24:15.818Z,9.10
2017-10-09T03:26:58.962Z,7.20
2017-10-09T03:29:28.401Z,8.90
2017-10-09T03:31:56.642Z,6.87
2017-10-09T03:34:24.966Z,12.53
2017-10-09T03:36:53.218Z,10.80
2017-10-09T03:39:21.467Z,10.93
2017-10-09T03:41:49.738Z,11.10
2017-10-09T03:44:17.988Z,12.73
2017-10-09T03:46:46.233Z,7.90
2017-10-09T03:49:14.501Z,8.67
2017-10-09T03:51:42.754Z,11.47
2017-10-09T03:54:10.998Z,9.50
2017-10-09T03:56:39.434Z,11.97
2017-10-09T03:59:07.687Z,11.50
2017-10-09T04:01:36.703Z,8.80
2017-10-09T04:04:05.735Z,14.60
2017-10-09T04:06:33.981Z,9.60
2017-10-09T04:09:02.224Z,10.73
2017-10-09T04:11:30.489Z,11.37
2017-10-09T04:13:58.742Z,8.83
2017-10-09T04:16:26.982Z,9.63
2017-10-09T04:18:55.514Z,13.40
2017-10-09T04:21:23.767Z,10.60
2017-10-09T04:23:52.027Z,11.07
2017-10-09T04:26:20.291Z,10.77
2017-10-09T04:28:48.549Z,11.40
2017-10-09T04:31:17.858Z,13.53
2017-10-09T04:33:46.893Z,17.60
2017-10-09T04:36:15.137Z,15.73
2017-10-09T04:38:43.389Z,17.03
2017-10-09T04:41:12.404Z,8.97
2017-10-09T04:43:41.390Z,13.43
2017-10-09T04:46:10.863Z,9.30
2017-10-09T04:48:39.133Z,10.10
2017-10-09T04:51:08.354Z,10.60
2017-10-09T04:53:36.596Z,12.17
2017-10-09T04:56:04.906Z,11.80
2017-10-09T04:58:33.149Z,11.10
2017-10-09T05:01:01.391Z,8.30
2017-10-09T05:03:29.751Z,11.60
2017-10-09T05:05:57.998Z,12.23
2017-10-09T05:08:26.246Z,10.27
2017-10-09T05:10:54.523Z,11.50
2017-10-09T05:13:22.763Z,8.87
2017-10-09T05:15:51.778Z,11.97
2017-10-09T05:18:20.112Z,14.53
2017-10-09T05:20:48.342Z,10.33
2017-10-09T05:23:16.607Z,17.13
2017-10-09T05:25:45.130Z,11.67
2017-10-09T05:28:13.384Z,11.00
2017-10-09T05:30:41.643Z,10.90
2017-10-09T05:33:10.113Z,10.43
2017-10-09T05:35:38.361Z,10.80
2017-10-09T05:38:06.610Z,10.30
2017-10-09T05:40:34.880Z,9.57
2017-10-09T05:43:03.210Z,10.83
2017-10-09T05:45:31.446Z,12.63
2017-10-09T05:48:00.009Z,11.10
2017-10-09T05:50:28.250Z,21.73
2017-10-09T05:52:56.498Z,19.07
2017-10-09T05:55:24.778Z,16.77
2017-10-09T05:57:53.027Z,13.50
2017-10-09T06:00:21.286Z,14.30
2017-10-09T06:02:49.562Z,13.93
2017-10-09T06:05:17.824Z,21.10
2017-10-09T06:07:46.074Z,12.87
2017-10-09T06:10:15.522Z,10.37
2017-10-09T06:12:43.770Z,13.73
2017-10-09T06:15:12.021Z,14.00
2017-10-09T06:17:40.302Z,15.07
2017-10-09T06:20:09.330Z,14.33
2017-10-09T06:22:37.575Z,14.13
2017-10-09T06:25:05.854Z,15.00
2017-10-09T06:27:34.873Z,16.20
2017-10-09T06:30:03.132Z,14.20
2017-10-09T06:32:32.222Z,11.50
2017-10-09T06:35:00.810Z,18.77
2017-10-09T06:37:29.826Z,17.53
2017-10-09T06:39:58.102Z,17.83
2017-10-09T06:42:26.355Z,13.53
2017-10-09T06:44:54.610Z,15.90
2017-10-09T06:47:22.877Z,18.70
2017-10-09T06:49:51.142Z,16.93
2017-10-09T06:52:19.394Z,15.27
2017-10-09T06:54:48.187Z,11.67
2017-10-09T06:57:16.434Z,12.53
2017-10-09T06:59:44.682Z,11.80
2017-10-09T07:02:13.002Z,12.10
2017-10-09T07:04:41.254Z,14.83
2017-10-09T07:07:09.502Z,19.03
2017-10-09T07:09:37.777Z,13.43
2017-10-09T07:12:06.030Z,15.97
2017-10-09T07:14:34.291Z,14.37
2017-10-09T07:17:02.854Z,24.53
2017-10-09T07:19:31.861Z,18.43
2017-10-09T07:22:00.118Z,20.17
2017-10-09T07:24:28.394Z,18.70
2017-10-09T07:26:57.412Z,15.50
2017-10-09T07:29:25.662Z,12.03
2017-10-09T07:31:54.700Z,13.03
2017-10-09T07:34:22.960Z,12.63
2017-10-09T07:36:51.350Z,17.80
2017-10-09T07:39:20.102Z,13.87
2017-10-09T07:41:49.127Z,11.47
2017-10-09T07:44:17.396Z,9.30
2017-10-09T07:46:45.674Z,14.20
2017-10-09T07:49:13.918Z,7.77
2017-10-09T07:51:42.171Z,14.67
2017-10-09T07:54:10.454Z,10.10
2017-10-09T07:56:38.715Z,12.20
2017-10-09T07:59:06.949Z,12.93
2017-10-09T08:01:35.422Z,21.33
2017-10-09T08:04:03.670Z,8.20
2017-10-09T08:06:32.034Z,21.60
2017-10-09T08:09:00.303Z,8.57
2017-10-09T08:11:28.546Z,10.90
2017-10-09T08:13:56.794Z,19.67
2017-10-09T08:16:25.084Z,12.67
2017-10-09T08:18:53.322Z,14.47
2017-10-09T08:21:21.615Z,14.63
2017-10-09T08:23:50.125Z,11.50
2017-10-09T08:26:18.375Z,11.60
2017-10-09T08:28:46.622Z,9.17
2017-10-09T08:31:14.890Z,12.73
2017-10-09T08:33:43.139Z,11.03
2017-10-09T08:36:11.379Z,13.10
2017-10-09T08:38:40.716Z,10.00
2017-10-09T08:41:08.962Z,10.30
2017-10-09T08:43:37.203Z,8.67
2017-10-09T08:46:05.726Z,8.10
2017-10-09T08:48:33.970Z,5.30
2017-10-09T08:51:02.214Z,6.83
2017-10-09T08:53:30.486Z,10.00
2017-10-09T08:55:58.731Z,5.80
2017-10-09T08:58:27.746Z,7.87
2017-10-09T09:00:56.018Z,7.30
2017-10-09T09:03:24.339Z,7.27
2017-10-09T09:05:53.754Z,18.00
2017-10-09T09:08:22.194Z,7.67
2017-10-09T09:10:50.439Z,4.87
2017-10-09T09:13:18.683Z,3.20
2017-10-09T09:15:47.156Z,4.37
2017-10-09T09:18:15.375Z,3.97
2017-10-09T09:20:44.387Z,1.40
2017-10-09T09:23:12.658Z,5.83
2017-10-09T09:25:40.901Z,4.53
2017-10-09T09:28:09.148Z,7.43
2017-10-09T09:30:37.471Z,2.20
2017-10-09T09:33:05.718Z,4.33
2017-10-09T09:35:33.959Z,5.03
2017-10-09T09:38:02.226Z,4.50
2017-10-09T09:40:30.539Z,9.40
2017-10-09T09:42:58.778Z,2.40
2017-10-09T09:45:27.051Z,4.00
2017-10-09T09:47:55.290Z,4.10
2017-10-09T09:50:23.539Z,9.80
2017-10-09T09:52:52.094Z,4.40
2017-10-09T09:55:20.343Z,2.60
2017-10-09T09:57:48.585Z,7.83
2017-10-09T10:00:16.935Z,2.90
2017-10-09T10:02:45.180Z,7.20
2017-10-09T10:05:13.418Z,3.27
2017-10-09T10:07:41.683Z,5.03
2017-10-09T10:10:09.964Z,5.50
2017-10-09T10:12:38.204Z,7.33
2017-10-09T10:15:06.742Z,7.30
2017-10-09T10:17:34.982Z,4.03
2017-10-09T10:20:03.223Z,3.17
2017-10-09T10:22:31.492Z,13.97
2017-10-09T10:25:00.498Z,5.23
2017-10-09T10:27:28.742Z,6.43
2017-10-09T10:29:57.007Z,3.10
2017-10-09T10:32:25.258Z,2.93
2017-10-09T10:34:53.500Z,5.77
2017-10-09T10:37:22.322Z,4.63
2017-10-09T10:39:50.568Z,4.40
2017-10-09T10:42:21.774Z,7.07
2017-10-09T10:44:50.095Z,4.40
2017-10-09T10:47:18.350Z,6.20
2017-10-09T10:49:47.429Z,5.13
2017-10-09T10:52:15.685Z,3.40
2017-10-09T10:54:43.929Z,10.70
2017-10-09T10:57:12.354Z,6.37
2017-10-09T10:59:41.098Z,6.40
2017-10-09T11:02:09.370Z,6.77
2017-10-09T11:04:37.625Z,7.23
2017-10-09T11:07:06.661Z,7.13
2017-10-09T11:09:34.911Z,5.63
2017-10-09T11:12:03.154Z,6.23
2017-10-09T11:14:31.429Z,5.37
2017-10-09T11:16:59.669Z,8.47
2017-10-09T11:19:27.917Z,11.13
2017-10-09T11:21:56.257Z,7.03
2017-10-09T11:24:24.510Z,5.30
2017-10-09T11:26:52.751Z,10.00
2017-10-09T11:29:21.028Z,7.20
2017-10-09T11:31:49.261Z,5.83
2017-10-09T11:34:17.497Z,6.10
2017-10-09T11:36:45.758Z,4.73
2017-10-09T11:39:14.018Z,11.97
2017-10-09T11:41:42.599Z,8.57
2017-10-09T11:44:11.938Z,9.13
2017-10-09T11:46:40.178Z,4.60
2017-10-09T11:49:08.418Z,6.67
2017-10-09T11:51:36.685Z,6.57
2017-10-09T11:54:04.924Z,5.17
2017-10-09T11:56:33.166Z,5.40
2017-10-09T11:59:01.438Z,7.30
2017-10-09T12:01:29.680Z,5.87
2017-10-09T12:03:57.970Z,3.03
2017-10-09T12:06:26.427Z,6.90
2017-10-09T12:08:54.675Z,5.10
2017-10-09T12:11:22.926Z,4.93
2017-10-09T12:13:51.198Z,6.60
2017-10-09T12:16:19.450Z,7.23
2017-10-09T12:18:47.698Z,9.77
2017-10-09T12:21:16.039Z,8.13
2017-10-09T12:23:45.047Z,4.80
2017-10-09T12:26:14.058Z,5.20
2017-10-09T12:28:42.390Z,6.37
2017-10-09T12:31:10.652Z,6.67
2017-10-09T12:33:38.896Z,19.10
2017-10-09T12:36:07.173Z,3.47
2017-10-09T12:38:35.423Z,5.10
2017-10-09T12:41:04.590Z,5.90
2017-10-09T12:43:33.067Z,3.17
2017-10-09T12:46:01.337Z,6.37
2017-10-09T12:48:29.574Z,9.87
2017-10-09T12:50:58.238Z,9.17
2017-10-09T12:53:27.246Z,4.80
2017-10-09T12:55:55.490Z,4.20
2017-10-09T12:58:23.759Z,7.70
2017-10-09T13:00:51.997Z,6.63
2017-10-09T13:03:20.245Z,5.70
2017-10-09T13:05:48.531Z,5.47
2017-10-09T13:08:16.774Z,7.63
2017-10-09T13:10:45.010Z,4.83
2017-10-09T13:13:13.593Z,7.10
2017-10-09T13:15:41.894Z,5.90
2017-10-09T13:18:10.129Z,8.10
2017-10-09T13:20:38.410Z,3.77
2017-10-09T13:23:06.651Z,5.10
2017-10-09T13:25:34.901Z,4.50
2017-10-09T13:28:03.176Z,3.93
2017-10-09T13:30:31.442Z,3.07
2017-10-09T13:33:00.448Z,3.20
2017-10-09T13:35:29.001Z,5.47
2017-10-09T13:37:57.250Z,3.00
2017-10-09T13:40:25.498Z,3.40
2017-10-09T13:42:53.757Z,3.30
2017-10-09T13:45:22.478Z,3.37
2017-10-09T13:47:51.498Z,11.00
2017-10-09T13:50:19.782Z,11.37
2017-10-09T13:52:48.023Z,4.50
2017-10-09T13:55:17.029Z,9.90
2017-10-09T13:57:45.650Z,6.73
2017-10-09T14:00:13.898Z,7.20
2017-10-09T14:02:42.147Z,8.63
2017-10-09T14:05:10.419Z,5.27
2017-10-09T14:07:38.653Z,13.93
2017-10-09T14:10:06.930Z,3.00
2017-10-09T14:12:35.192Z,4.20
2017-10-09T14:15:03.429Z,9.60
2017-10-09T14:17:32.434Z,5.77
2017-10-09T14:20:01.376Z,9.60
2017-10-09T14:22:29.621Z,4.67
2017-10-09T14:24:57.870Z,3.67
2017-10-09T14:27:26.895Z,3.80
2017-10-09T14:29:55.146Z,3.00
2017-10-09T14:42:24.454Z,3.27
2017-10-09T14:44:52.700Z,6.67
2017-10-09T14:47:21.477Z,5.87
2017-10-09T14:49:50.635Z,7.10
2017-10-09T14:52:18.862Z,3.70
2017-10-09T14:54:47.870Z,2.90
2017-10-09T14:57:16.154Z,4.10
2017-10-09T14:59:44.401Z,2.83
2017-10-09T15:02:12.655Z,4.20
2017-10-09T15:04:40.978Z,3.13
2017-10-09T15:07:09.226Z,5.93
2017-10-09T15:09:37.472Z,8.93
2017-10-09T15:12:05.760Z,11.43
2017-10-09T15:14:34.003Z,4.23
2017-10-09T15:17:02.240Z,2.97
2017-10-09T15:19:30.538Z,2.73
2017-10-09T15:21:58.767Z,5.03
2017-10-09T15:24:27.023Z,5.43
2017-10-09T15:26:56.531Z,2.70
2017-10-09T15:29:24.766Z,6.37
2017-10-09T15:31:53.006Z,2.90
2017-10-09T15:34:21.279Z,8.80
2017-10-09T15:36:49.521Z,4.57
2017-10-09T15:39:17.774Z,5.13
2017-10-09T15:41:46.127Z,4.37
2017-10-09T15:44:15.403Z,5.43
2017-10-09T15:46:43.662Z,3.07
2017-10-09T15:49:12.358Z,2.93
2017-10-09T15:51:40.598Z,6.17
2017-10-09T15:54:08.851Z,4.50
2017-10-09T15:56:37.127Z,4.23
2017-10-09T15:59:05.374Z,3.87
2017-10-09T16:01:33.759Z,5.97
2017-10-09T16:04:02.195Z,7.30
2017-10-09T16:06:31.426Z,7.00
2017-10-09T16:08:59.805Z,6.63
2017-10-09T16:11:28.296Z,15.37
2017-10-09T16:13:56.539Z,4.70
2017-10-09T16:16:24.953Z,4.67
2017-10-09T16:18:53.441Z,4.80
2017-10-09T16:21:21.674Z,3.77
2017-10-09T16:23:49.928Z,5.80
2017-10-09T16:26:18.215Z,4.73
2017-10-09T16:28:47.451Z,8.80
2017-10-09T16:31:15.701Z,5.60
2017-10-09T16:33:44.170Z,9.53
2017-10-09T16:36:12.618Z,8.13
2017-10-09T16:38:41.799Z,5.53
2017-10-09T16:41:10.433Z,8.63
2017-10-09T16:43:38.687Z,9.73
2017-10-09T16:46:07.711Z,6.03
2017-10-09T16:48:36.476Z,4.73
2017-10-09T16:51:04.732Z,8.60
2017-10-09T16:53:33.743Z,8.10
2017-10-09T16:56:02.838Z,10.00
2017-10-09T16:58:31.863Z,7.90
2017-10-09T17:01:00.105Z,6.10
2017-10-09T17:03:28.384Z,7.80
2017-10-09T17:05:57.394Z,11.10
2017-10-09T17:08:25.846Z,10.53
2017-10-09T17:10:55.625Z,11.40
2017-10-09T17:13:23.864Z,7.63
2017-10-09T17:15:52.381Z,9.50
2017-10-09T17:18:20.818Z,7.40
2017-10-09T17:20:49.062Z,6.20
2017-10-09T17:23:17.318Z,8.23
2017-10-09T17:25:45.808Z,8.10
2017-10-09T17:28:14.034Z,10.67
2017-10-09T17:30:42.314Z,10.90
2017-10-09T17:33:10.862Z,10.27
2017-10-09T17:35:39.219Z,11.57
2017-10-09T17:38:07.470Z,8.47
2017-10-09T17:40:35.955Z,8.57
2017-10-09T17:43:04.202Z,8.53
2017-10-09T17:45:32.464Z,7.97
2017-10-09T17:48:01.497Z,8.53
2017-10-09T17:50:29.955Z,9.80
2017-10-09T17:52:58.218Z,8.37
2017-10-09T17:55:27.257Z,8.93
2017-10-09T17:57:55.507Z,8.93
2017-10-09T18:00:24.407Z,17.17
2017-10-09T18:02:52.730Z,8.63
2017-10-09T18:05:21.006Z,11.53
2017-10-09T18:07:49.470Z,7.80
2017-10-09T18:10:17.902Z,10.50
2017-10-09T18:12:46.142Z,10.13
2017-10-09T18:15:19.820Z,10.77
2017-10-09T18:17:48.156Z,10.43
2017-10-09T18:20:17.171Z,9.93
2017-10-09T18:22:45.491Z,12.17
2017-10-09T18:25:14.880Z,10.27
2017-10-09T18:27:43.182Z,10.40
2017-10-09T18:30:11.707Z,11.13
2017-10-09T18:32:40.010Z,14.43
2017-10-09T18:35:08.266Z,10.53
2017-10-09T18:37:36.515Z,10.40
2017-10-09T18:40:04.818Z,11.87
2017-10-09T18:42:33.078Z,12.53
2017-10-09T18:45:01.339Z,12.07
2017-10-09T18:47:29.694Z,16.17
2017-10-09T18:49:57.957Z,14.33
2017-10-09T18:52:26.690Z,18.57
2017-10-09T18:54:55.737Z,13.77
2017-10-09T18:57:24.035Z,14.30
2017-10-09T18:59:52.300Z,13.30
2017-10-09T19:02:20.570Z,18.73
2017-10-09T19:04:48.819Z,15.23
2017-10-09T19:07:17.098Z,14.30
2017-10-09T19:09:47.587Z,16.07
2017-10-09T19:12:15.831Z,11.80
2017-10-09T19:14:44.089Z,10.93
2017-10-09T19:17:12.359Z,10.43
2017-10-09T19:19:40.618Z,12.67
2017-10-09T19:22:08.870Z,11.77
2017-10-09T19:24:37.159Z,15.77
2017-10-09T19:27:05.426Z,12.23
2017-10-09T19:29:33.889Z,15.03
2017-10-09T19:32:02.230Z,12.70
2017-10-09T19:34:30.487Z,14.30
2017-10-09T19:36:58.747Z,13.80
2017-10-09T19:39:27.897Z,12.10
2017-10-09T19:41:56.147Z,15.97
2017-10-09T19:44:24.386Z,12.07
2017-10-09T19:46:52.664Z,11.20
2017-10-09T19:49:20.911Z,10.90
2017-10-09T19:51:49.154Z,13.37
2017-10-09T19:54:18.145Z,16.60
2017-10-09T19:56:46.390Z,11.33
2017-10-09T19:59:15.419Z,14.23
2017-10-09T20:01:43.694Z,12.00
2017-10-09T20:04:11.946Z,10.37
2017-10-09T20:06:40.190Z,12.27
2017-10-09T20:09:08.466Z,11.80
2017-10-09T20:11:36.720Z,12.47
2017-10-09T20:14:04.971Z,14.87
2017-10-09T20:16:33.588Z,15.97
2017-10-09T20:19:01.823Z,16.57
2017-10-09T20:21:30.074Z,14.60
2017-10-09T20:23:58.359Z,14.03
2017-10-09T20:26:26.607Z,12.67
2017-10-09T20:28:54.870Z,16.07
2017-10-09T20:31:23.986Z,21.40
2017-10-09T20:33:52.242Z,13.17
2017-10-09T20:36:20.499Z,13.57
2017-10-09T20:38:48.906Z,12.63
2017-10-09T20:41:17.172Z,13.70
2017-10-09T20:43:45.423Z,15.23
2017-10-09T20:46:13.706Z,12.80
2017-10-09T20:48:41.962Z,19.93
2017-10-09T20:51:10.219Z,11.40
2017-10-09T20:53:38.494Z,13.37
2017-10-09T20:56:07.798Z,12.50
2017-10-09T20:58:36.818Z,12.00
2017-10-09T21:01:05.378Z,10.77
2017-10-09T21:03:34.399Z,13.43
2017-10-09T21:06:02.650Z,11.80
2017-10-09T21:08:30.927Z,12.77
2017-10-09T21:10:59.949Z,12.80
2017-10-09T21:13:28.199Z,11.07
2017-10-09T21:15:57.245Z,14.83
2017-10-09T21:18:25.492Z,14.00
2017-10-09T21:20:53.825Z,10.50
2017-10-09T21:23:23.157Z,18.97
2017-10-09T21:25:51.402Z,12.33
2017-10-09T21:28:19.654Z,11.50
2017-10-09T21:30:47.935Z,15.57
2017-10-09T21:33:16.183Z,13.10
2017-10-09T21:35:44.431Z,9.60
2017-10-09T21:38:12.703Z,15.77
2017-10-09T21:40:40.982Z,16.27
2017-10-09T21:43:10.006Z,15.10
2017-10-09T21:45:38.534Z,11.93
2017-10-09T21:48:06.795Z,17.80
2017-10-09T21:50:35.043Z,11.07
2017-10-09T21:53:03.318Z,12.23
2017-10-09T21:55:31.633Z,9.93
2017-10-09T21:58:00.139Z,9.87
2017-10-09T22:00:28.414Z,10.23
2017-10-09T22:02:57.434Z,15.03
2017-10-09T22:05:25.685Z,16.20
2017-10-09T22:07:54.229Z,14.10
2017-10-09T22:10:22.505Z,11.00
2017-10-09T22:12:50.732Z,13.83
2017-10-09T22:15:19.011Z,10.87
2017-10-09T22:17:47.258Z,12.30
2017-10-09T22:20:15.518Z,11.80
2017-10-09T22:22:43.788Z,11.87
2017-10-09T22:25:12.034Z,10.57
2017-10-09T22:27:40.286Z,12.53
2017-10-09T22:30:09.393Z,12.87
2017-10-09T22:32:37.648Z,19.20
2017-10-09T22:35:06.662Z,11.87
2017-10-09T22:37:34.937Z,14.67
2017-10-09T22:40:03.192Z,10.83
2017-10-09T22:42:31.443Z,14.70
2017-10-09T22:44:59.719Z,12.67
2017-10-09T22:47:27.974Z,11.77
2017-10-09T22:49:56.226Z,11.20
2017-10-09T22:52:24.823Z,10.90
2017-10-09T22:54:53.080Z,11.60
2017-10-09T22:57:21.334Z,11.67
2017-10-09T22:59:49.858Z,11.30
2017-10-09T23:02:18.110Z,18.43
2017-10-09T23:04:47.130Z,11.80
2017-10-09T23:07:15.402Z,14.73
2017-10-09T23:09:43.658Z,12.13
2017-10-09T23:12:12.682Z,15.63
2017-10-09T23:14:41.074Z,12.03
2017-10-09T23:17:09.328Z,12.20
2017-10-09T23:19:37.578Z,14.77
2017-10-09T23:22:05.850Z,10.63
2017-10-09T23:24:34.862Z,10.70
2017-10-09T23:27:03.879Z,10.60
2017-10-09T23:29:32.151Z,11.60
2017-10-09T23:32:00.398Z,10.43
2017-10-09T23:34:28.642Z,10.73
2017-10-09T23:36:57.324Z,12.33
2017-10-09T23:39:25.568Z,11.60
2017-10-09T23:41:53.814Z,11.40
2017-10-09T23:44:22.861Z,9.50
2017-10-09T23:46:51.091Z,9.90
2017-10-09T23:49:20.146Z,10.93
2017-10-09T23:51:48.422Z,10.37
2017-10-09T23:54:16.665Z,9.60
2017-10-09T23:56:44.905Z,10.40
2017-10-09T23:59:14.349Z,15.40
